Park City, Montana
Current Conditions -  °F | °C
As of 10:53 PM on Sunday 25 Jan 2015 (Local Time) from KBIL Reporting Station
Broken Clouds Broken Clouds  
Wind Chill: 51°   Ceiling: 25000
Heat Index: 51°   Visibility: 10mi
Dew Point: 30°   Wind: 14mph
Humidity: 44%   Direction: 230°SW
Pressure: 30.08"   Gusts: 21mph
Location:  45.63°N, 108.92°W
Report Text: KBIL 260553Z 23012G18KT 10SM BKN250 11/M01 A3008 RMK AO2 SLP185 T01061011 10150 20100 51008
Loading
Personal Weather Stations






























Interactive Weather Map New forecast layout! Learn more

10-Day Weather Forecast

Advertisements
Track Severe Weather on mobile